createdAt,value
2023-01-13T00:01:06.737Z,57.28
2023-01-13T00:03:08.330Z,57.15
2023-01-13T00:05:10.373Z,57.32
2023-01-13T00:07:12.063Z,57.25
2023-01-13T00:09:13.727Z,57.12
2023-01-13T00:11:18.989Z,57.11
2023-01-13T00:13:22.620Z,56.89
2023-01-13T00:15:24.296Z,56.90
2023-01-13T00:17:25.962Z,57.10
2023-01-13T00:19:27.862Z,57.23
2023-01-13T00:21:29.611Z,57.29
2023-01-13T00:23:32.956Z,57.83
2023-01-13T00:25:34.658Z,57.74
2023-01-13T00:27:36.467Z,57.74
2023-01-13T00:29:39.648Z,57.92
2023-01-13T00:31:41.249Z,58.22
2023-01-13T00:33:43.408Z,58.29
2023-01-13T00:35:45.145Z,58.67
2023-01-13T00:37:46.817Z,58.71
2023-01-13T00:39:48.613Z,59.03
2023-01-13T00:41:50.401Z,59.13
2023-01-13T00:43:52.148Z,59.09
2023-01-13T00:45:55.610Z,58.85
2023-01-13T00:47:57.198Z,58.95
2023-01-13T00:49:58.849Z,58.77
2023-01-13T00:52:00.463Z,58.43
2023-01-13T00:54:02.174Z,58.74
2023-01-13T00:56:05.948Z,58.87
2023-01-13T00:58:07.533Z,58.55
2023-01-13T01:00:10.882Z,58.27
2023-01-13T01:02:14.286Z,58.77
2023-01-13T01:04:17.576Z,58.53
2023-01-13T01:06:21.349Z,58.88
2023-01-13T01:08:23.514Z,59.08
2023-01-13T01:10:25.454Z,59.06
2023-01-13T01:12:27.174Z,59.14
2023-01-13T01:14:29.108Z,59.08
2023-01-13T01:16:32.960Z,59.12
2023-01-13T01:18:37.099Z,59.42
2023-01-13T01:20:38.748Z,59.22
2023-01-13T01:22:40.389Z,59.70
2023-01-13T01:24:42.007Z,59.95
2023-01-13T01:26:43.638Z,60.17
2023-01-13T01:28:48.531Z,59.71
2023-01-13T01:30:52.817Z,59.91
2023-01-13T01:32:54.487Z,59.98
2023-01-13T01:35:00.287Z,59.92
2023-01-13T01:37:01.921Z,59.81
2023-01-13T01:39:04.772Z,59.63
2023-01-13T01:41:07.156Z,59.87
2023-01-13T01:43:14.464Z,59.87
2023-01-13T01:45:19.525Z,60.07
2023-01-13T01:47:22.642Z,59.97
2023-01-13T01:49:28.925Z,60.24
2023-01-13T01:51:35.584Z,60.03
2023-01-13T01:53:37.908Z,60.14
2023-01-13T01:55:40.024Z,60.42
2023-01-13T01:57:48.168Z,60.53
2023-01-13T01:59:51.016Z,60.48
2023-01-13T02:01:52.845Z,60.74
2023-01-13T02:04:01.397Z,60.79
2023-01-13T02:06:03.422Z,60.93
2023-01-13T02:08:08.849Z,61.10
2023-01-13T02:10:12.959Z,61.09
2023-01-13T02:12:15.636Z,61.09
2023-01-13T02:14:18.068Z,60.91
2023-01-13T02:16:23.371Z,60.58
2023-01-13T02:18:36.333Z,60.47
2023-01-13T02:20:55.243Z,60.63
2023-01-13T02:23:30.613Z,60.70
2023-01-13T02:26:00.712Z,60.72
2023-01-13T02:28:30.451Z,60.55
2023-01-13T02:30:40.672Z,60.74
2023-01-13T02:32:56.375Z,60.52
2023-01-13T02:35:05.276Z,60.54
2023-01-13T02:37:14.253Z,60.72
2023-01-13T02:39:23.123Z,61.04
2023-01-13T02:41:31.515Z,61.11
2023-01-13T02:43:38.453Z,61.15
2023-01-13T02:45:51.104Z,61.35
2023-01-13T02:47:53.912Z,61.38
2023-01-13T02:50:00.288Z,61.20
2023-01-13T02:52:09.085Z,61.19
2023-01-13T02:54:15.562Z,61.33
2023-01-13T02:56:17.957Z,61.37
2023-01-13T02:58:24.105Z,61.38
2023-01-13T03:00:26.911Z,61.35
2023-01-13T03:02:29.929Z,61.52
2023-01-13T03:04:54.184Z,61.56
2023-01-13T03:07:04.131Z,61.38
2023-01-13T03:09:12.081Z,61.24
2023-01-13T03:11:16.738Z,61.29
2023-01-13T03:13:33.402Z,61.30
2023-01-13T03:15:43.626Z,60.94
2023-01-13T03:17:55.780Z,61.10
2023-01-13T03:20:04.868Z,60.94
2023-01-13T03:22:18.157Z,60.83
2023-01-13T03:24:25.781Z,61.36
2023-01-13T03:26:33.990Z,61.09
2023-01-13T03:28:40.366Z,61.20
2023-01-13T03:30:48.531Z,61.37
2023-01-13T03:32:58.781Z,61.77
2023-01-13T03:35:08.020Z,62.36
2023-01-13T03:37:10.911Z,62.14
2023-01-13T03:39:19.920Z,62.30
2023-01-13T03:41:25.899Z,62.21
2023-01-13T03:43:33.589Z,62.17
2023-01-13T03:45:37.142Z,62.50
2023-01-13T03:47:42.688Z,62.81
2023-01-13T03:49:52.746Z,62.63
2023-01-13T03:51:58.703Z,62.59
2023-01-13T03:54:04.972Z,62.56
2023-01-13T03:56:15.809Z,62.54
2023-01-13T03:58:22.457Z,62.76
2023-01-13T04:00:31.735Z,62.64
2023-01-13T04:02:44.048Z,62.42
2023-01-13T04:04:51.999Z,62.04
2023-01-13T04:06:58.210Z,61.72
2023-01-13T04:09:06.677Z,61.57
2023-01-13T04:11:14.614Z,61.51
2023-01-13T04:13:20.559Z,61.03
2023-01-13T04:15:25.264Z,60.96
2023-01-13T04:17:26.908Z,60.89
2023-01-13T04:19:28.596Z,60.91
2023-01-13T04:21:31.871Z,60.68
2023-01-13T04:23:34.160Z,60.69
2023-01-13T04:25:36.268Z,60.81
2023-01-13T04:27:38.100Z,60.32
2023-01-13T04:29:39.780Z,60.11
2023-01-13T04:31:41.574Z,60.12
2023-01-13T04:33:43.435Z,60.16
2023-01-13T04:35:46.346Z,60.30
2023-01-13T04:37:49.542Z,59.91
2023-01-13T04:39:51.270Z,59.69
2023-01-13T04:41:52.929Z,60.03
2023-01-13T04:43:54.645Z,59.84
2023-01-13T04:45:56.316Z,59.87
2023-01-13T04:47:58.612Z,59.64
2023-01-13T04:50:01.763Z,59.00
2023-01-13T04:52:04.253Z,58.99
2023-01-13T04:54:10.417Z,59.03
2023-01-13T04:56:12.086Z,58.69
2023-01-13T04:58:15.334Z,58.84
2023-01-13T05:00:20.142Z,58.98
2023-01-13T05:02:22.077Z,58.86
2023-01-13T05:04:24.142Z,58.77
2023-01-13T05:06:28.006Z,58.72
2023-01-13T05:08:29.666Z,58.70
2023-01-13T05:10:32.734Z,58.54
2023-01-13T05:12:34.549Z,58.42
2023-01-13T05:14:36.185Z,58.39
2023-01-13T05:16:37.913Z,58.14
2023-01-13T05:18:39.850Z,58.03
2023-01-13T05:20:43.061Z,58.25
2023-01-13T05:22:44.699Z,58.21
2023-01-13T05:24:47.069Z,58.16
2023-01-13T05:26:50.196Z,58.18
2023-01-13T05:28:52.021Z,57.87
2023-01-13T05:30:53.772Z,58.06
2023-01-13T05:32:55.724Z,58.25
2023-01-13T05:34:57.781Z,58.01
2023-01-13T05:36:59.443Z,57.97
2023-01-13T05:39:01.088Z,57.95
2023-01-13T05:41:02.947Z,58.06
2023-01-13T05:43:09.076Z,58.21
2023-01-13T05:45:11.416Z,58.27
2023-01-13T05:47:13.040Z,58.13
2023-01-13T05:49:14.600Z,57.83
2023-01-13T05:51:16.192Z,57.78
2023-01-13T05:53:18.440Z,57.97
2023-01-13T05:55:20.123Z,58.11
2023-01-13T05:57:21.914Z,58.04
2023-01-13T05:59:24.891Z,57.92
2023-01-13T06:01:26.578Z,58.13
2023-01-13T06:03:28.388Z,57.99
2023-01-13T06:05:30.744Z,58.20
2023-01-13T06:07:32.408Z,58.01
2023-01-13T06:09:34.052Z,57.85
2023-01-13T06:11:35.670Z,57.96
2023-01-13T06:13:37.339Z,58.20
2023-01-13T06:15:40.318Z,58.50
2023-01-13T06:17:41.960Z,59.93
2023-01-13T06:19:43.623Z,60.41
2023-01-13T06:21:45.514Z,61.78
2023-01-13T06:23:47.365Z,61.99
2023-01-13T06:25:56.593Z,61.82
2023-01-13T06:27:59.942Z,60.84
2023-01-13T06:30:01.611Z,60.83
2023-01-13T06:32:09.584Z,60.96
2023-01-13T06:34:14.861Z,60.98
2023-01-13T06:36:19.507Z,60.86
2023-01-13T06:38:25.353Z,61.35
2023-01-13T06:40:30.340Z,61.22
2023-01-13T06:42:35.428Z,61.28
2023-01-13T06:44:37.581Z,61.62
2023-01-13T06:46:39.548Z,62.27
2023-01-13T06:48:42.694Z,63.18
2023-01-13T06:50:44.883Z,64.00
2023-01-13T06:52:46.799Z,65.26
2023-01-13T06:54:48.583Z,66.73
2023-01-13T06:56:51.696Z,66.45
2023-01-13T06:58:53.393Z,66.14
2023-01-13T07:00:59.265Z,66.68
2023-01-13T07:03:11.967Z,66.83
2023-01-13T07:05:15.817Z,66.20
2023-01-13T07:07:17.474Z,66.25
2023-01-13T07:09:19.226Z,64.74
2023-01-13T07:11:22.212Z,64.84
2023-01-13T07:13:24.061Z,64.76
2023-01-13T07:15:29.039Z,64.27
2023-01-13T07:17:30.643Z,63.59
2023-01-13T07:19:32.575Z,62.79
2023-01-13T07:21:35.549Z,62.58
2023-01-13T07:23:39.078Z,61.68
2023-01-13T07:25:40.706Z,60.96
2023-01-13T07:27:42.404Z,60.70
2023-01-13T07:29:46.788Z,60.42
2023-01-13T07:31:50.144Z,60.03
2023-01-13T07:33:52.264Z,59.92
2023-01-13T07:35:57.059Z,59.44
2023-01-13T07:38:00.176Z,59.45
2023-01-13T07:40:02.186Z,59.84
2023-01-13T07:42:04.040Z,60.41
2023-01-13T07:44:06.355Z,59.62
2023-01-13T07:46:08.101Z,57.68
2023-01-13T07:48:09.874Z,58.80
2023-01-13T07:50:12.000Z,59.06
2023-01-13T07:52:13.838Z,58.54
2023-01-13T07:54:21.146Z,58.66
2023-01-13T07:56:27.407Z,57.82
2023-01-13T07:58:29.465Z,58.24
2023-01-13T08:00:31.082Z,57.92
2023-01-13T08:02:33.209Z,57.47
2023-01-13T08:04:35.012Z,57.50
2023-01-13T08:06:39.009Z,56.31
2023-01-13T08:08:40.777Z,57.27
2023-01-13T08:10:44.276Z,57.67
2023-01-13T08:12:53.065Z,58.11
2023-01-13T08:14:59.044Z,56.81
2023-01-13T08:17:00.966Z,55.97
2023-01-13T08:19:02.600Z,56.86
2023-01-13T08:21:06.474Z,56.07
2023-01-13T08:23:08.145Z,56.01
2023-01-13T08:25:09.859Z,56.33
2023-01-13T08:27:13.252Z,55.59
2023-01-13T08:29:16.192Z,54.60
2023-01-13T08:31:18.241Z,53.81
2023-01-13T08:33:20.574Z,55.17
2023-01-13T08:35:22.709Z,54.24
2023-01-13T08:37:24.591Z,54.61
2023-01-13T08:39:26.282Z,55.27
2023-01-13T08:41:28.196Z,53.93
2023-01-13T08:43:31.207Z,55.31
2023-01-13T08:45:33.165Z,54.14
2023-01-13T08:47:35.212Z,53.70
2023-01-13T08:49:37.077Z,53.63
2023-01-13T08:51:38.805Z,55.13
2023-01-13T08:53:40.537Z,54.16
2023-01-13T08:55:42.237Z,54.08
2023-01-13T08:57:44.006Z,53.92
2023-01-13T08:59:47.224Z,53.71
2023-01-13T09:01:48.975Z,54.18
2023-01-13T09:03:50.905Z,53.83
2023-01-13T09:05:52.723Z,53.79
2023-01-13T09:07:54.410Z,54.04
2023-01-13T09:09:56.154Z,54.29
2023-01-13T09:11:57.957Z,54.72
2023-01-13T09:14:01.232Z,54.56
2023-01-13T09:16:06.237Z,54.96
2023-01-13T09:18:07.999Z,54.71
2023-01-13T09:20:11.273Z,55.33
2023-01-13T09:22:16.293Z,55.39
2023-01-13T09:24:20.220Z,55.68
2023-01-13T09:26:21.987Z,55.57
2023-01-13T09:28:23.751Z,55.81
2023-01-13T09:30:25.802Z,54.92
2023-01-13T09:32:28.906Z,55.21
2023-01-13T09:34:30.659Z,55.56
2023-01-13T09:36:32.329Z,55.82
2023-01-13T09:38:34.045Z,55.71
2023-01-13T09:40:39.672Z,56.24
2023-01-13T09:42:46.845Z,56.35
2023-01-13T09:44:53.216Z,56.11
2023-01-13T09:46:58.882Z,55.98
2023-01-13T09:49:02.696Z,56.04
2023-01-13T09:51:11.978Z,55.98
2023-01-13T09:53:20.152Z,56.25
2023-01-13T09:55:26.770Z,56.24
2023-01-13T09:57:32.620Z,56.51
2023-01-13T09:59:34.733Z,56.35
2023-01-13T10:01:44.282Z,56.15
2023-01-13T10:03:46.128Z,56.36
2023-01-13T10:05:55.646Z,56.17
2023-01-13T10:08:01.789Z,56.69
2023-01-13T10:10:09.529Z,57.05
2023-01-13T10:12:17.430Z,56.09
2023-01-13T10:14:23.857Z,56.60
2023-01-13T10:16:33.742Z,56.71
2023-01-13T10:18:49.107Z,56.64
2023-01-13T10:21:01.081Z,57.32
2023-01-13T10:23:14.500Z,57.73
2023-01-13T10:25:33.123Z,57.46
2023-01-13T10:27:37.281Z,58.00
2023-01-13T10:29:39.089Z,57.34
2023-01-13T10:31:41.276Z,57.03
2023-01-13T10:33:43.003Z,56.93
2023-01-13T10:36:15.192Z,57.17
2023-01-13T10:38:19.057Z,55.49
2023-01-13T10:40:20.927Z,56.43
2023-01-13T10:42:24.104Z,55.29
2023-01-13T10:44:26.004Z,55.79
2023-01-13T10:46:29.537Z,53.55
2023-01-13T10:48:40.827Z,54.02
2023-01-13T10:50:44.010Z,53.03
2023-01-13T10:53:01.179Z,52.19
2023-01-13T10:55:04.027Z,51.50
2023-01-13T10:57:19.806Z,52.13
2023-01-13T10:59:23.560Z,51.91
2023-01-13T11:01:27.187Z,50.96
2023-01-13T11:03:38.179Z,49.47
2023-01-13T11:05:40.115Z,50.87
2023-01-13T11:07:47.350Z,50.30
2023-01-13T11:10:05.981Z,51.49
2023-01-13T11:12:30.050Z,51.20
2023-01-13T11:14:38.694Z,50.71
2023-01-13T11:16:52.747Z,51.87
2023-01-13T11:18:59.611Z,50.37
2023-01-13T11:21:07.761Z,49.85
2023-01-13T11:23:15.708Z,49.25
2023-01-13T11:25:23.649Z,50.85
2023-01-13T11:27:37.090Z,50.80
2023-01-13T11:29:47.778Z,50.23
2023-01-13T11:31:54.305Z,50.00
2023-01-13T11:34:02.841Z,49.25
2023-01-13T11:36:10.948Z,48.98
2023-01-13T11:38:20.440Z,47.89
2023-01-13T11:40:31.098Z,49.00
2023-01-13T11:42:41.677Z,46.17
2023-01-13T11:44:50.680Z,48.75
2023-01-13T11:46:53.733Z,47.88
2023-01-13T11:48:59.391Z,45.56
2023-01-13T11:51:08.206Z,45.02
2023-01-13T11:53:28.499Z,43.64
2023-01-13T11:55:38.630Z,41.79
2023-01-13T11:57:56.269Z,43.54
2023-01-13T12:00:16.488Z,43.45
2023-01-13T12:02:33.852Z,42.48
2023-01-13T12:04:43.875Z,43.61
2023-01-13T12:06:48.403Z,43.90
2023-01-13T12:09:12.112Z,43.75
2023-01-13T12:11:25.323Z,43.20
2023-01-13T12:13:44.710Z,42.72
2023-01-13T12:16:15.192Z,42.55
2023-01-13T12:18:40.688Z,42.87
2023-01-13T12:20:51.889Z,43.34
2023-01-13T12:22:57.967Z,44.18
2023-01-13T12:25:05.926Z,43.72
2023-01-13T12:27:15.698Z,43.90
2023-01-13T12:29:19.315Z,43.89
2023-01-13T12:31:22.191Z,44.47
2023-01-13T12:33:40.044Z,44.69
2023-01-13T12:35:49.550Z,44.36
2023-01-13T12:37:58.552Z,44.18
2023-01-13T12:40:19.480Z,45.01
2023-01-13T12:42:29.984Z,45.13
2023-01-13T12:44:31.898Z,44.83
2023-01-13T12:46:35.507Z,45.59
2023-01-13T12:49:03.892Z,45.67
2023-01-13T12:51:21.573Z,44.88
2023-01-13T12:53:36.368Z,45.95
2023-01-13T12:55:38.160Z,46.09
2023-01-13T12:57:56.590Z,44.81
2023-01-13T13:00:22.300Z,44.83
2023-01-13T13:02:32.996Z,46.37
2023-01-13T13:04:43.624Z,45.53
2023-01-13T13:06:52.438Z,45.32
2023-01-13T13:09:04.039Z,45.58
2023-01-13T13:11:35.262Z,45.40
2023-01-13T13:13:44.789Z,45.90
2023-01-13T13:15:49.011Z,45.49
2023-01-13T13:18:35.233Z,44.58
2023-01-13T13:21:04.002Z,44.80
2023-01-13T13:23:27.146Z,44.84
2023-01-13T13:25:28.848Z,44.91
2023-01-13T13:27:43.560Z,45.72
2023-01-13T13:29:52.505Z,45.48
2023-01-13T13:32:12.668Z,45.05
2023-01-13T13:34:27.509Z,45.13
2023-01-13T13:36:50.365Z,45.49
2023-01-13T13:39:15.652Z,45.54
2023-01-13T13:41:22.461Z,45.71
2023-01-13T13:43:24.939Z,45.16
2023-01-13T13:45:31.188Z,45.43
2023-01-13T13:47:35.868Z,45.83
2023-01-13T13:49:40.546Z,45.11
2023-01-13T13:51:47.964Z,44.71
2023-01-13T13:53:49.789Z,44.13
2023-01-13T13:55:57.565Z,44.18
2023-01-13T13:57:59.827Z,44.66
2023-01-13T14:00:08.437Z,45.11
2023-01-13T14:02:21.113Z,44.97
2023-01-13T14:04:24.873Z,45.72
2023-01-13T14:06:26.730Z,45.07
2023-01-13T14:08:30.437Z,44.70
2023-01-13T14:10:34.960Z,44.64
2023-01-13T14:12:38.427Z,45.51
2023-01-13T14:14:43.069Z,45.61
2023-01-13T14:16:44.973Z,46.08
2023-01-13T14:18:48.652Z,47.39
2023-01-13T14:20:55.061Z,48.41
2023-01-13T14:22:59.900Z,49.27
2023-01-13T14:25:01.695Z,49.81
2023-01-13T14:27:11.044Z,50.16
2023-01-13T14:29:19.794Z,51.59
2023-01-13T14:31:24.876Z,50.63
2023-01-13T14:33:33.828Z,51.11
2023-01-13T14:35:36.822Z,51.14
2023-01-13T14:37:41.290Z,51.13
2023-01-13T14:39:42.944Z,50.83
2023-01-13T14:41:46.850Z,49.81
2023-01-13T14:43:50.530Z,48.95
2023-01-13T14:45:57.532Z,48.76
2023-01-13T14:48:01.420Z,47.91
2023-01-13T14:50:06.905Z,48.31
2023-01-13T14:52:17.099Z,48.48
2023-01-13T14:54:52.653Z,47.55
2023-01-13T14:57:12.218Z,48.37
2023-01-13T14:59:42.047Z,48.51
2023-01-13T15:01:44.042Z,48.89
2023-01-13T15:03:45.845Z,48.55
2023-01-13T15:05:48.972Z,49.09
2023-01-13T15:07:54.058Z,49.24
2023-01-13T15:09:59.510Z,49.34
2023-01-13T15:12:15.566Z,48.88
2023-01-13T15:14:23.649Z,49.36
2023-01-13T15:16:27.158Z,49.48
2023-01-13T15:18:29.069Z,49.15
2023-01-13T15:20:30.936Z,49.26
2023-01-13T15:22:34.546Z,48.84
2023-01-13T15:24:37.615Z,48.99
2023-01-13T15:26:39.333Z,49.01
2023-01-13T15:28:41.205Z,49.34
2023-01-13T15:30:43.449Z,49.65
2023-01-13T15:32:45.738Z,49.16
2023-01-13T15:34:48.633Z,49.04
2023-01-13T15:36:50.379Z,49.00
2023-01-13T15:38:52.359Z,48.94
2023-01-13T15:40:57.815Z,48.53
2023-01-13T15:42:59.567Z,48.67
2023-01-13T15:45:01.381Z,48.15
2023-01-13T15:47:06.857Z,48.32
2023-01-13T15:49:22.943Z,48.26
2023-01-13T15:51:26.756Z,48.44
2023-01-13T15:53:28.800Z,48.50
2023-01-13T15:55:37.725Z,48.16
2023-01-13T15:57:49.614Z,48.52
2023-01-13T15:59:58.460Z,48.59
2023-01-13T16:02:16.159Z,48.06
2023-01-13T16:04:22.671Z,48.32
2023-01-13T16:06:31.913Z,47.84
2023-01-13T16:08:33.843Z,47.62
2023-01-13T16:11:27.080Z,47.37
2023-01-13T16:13:30.261Z,47.43
2023-01-13T16:23:11.168Z,47.14
2023-01-13T16:25:16.443Z,47.35
2023-01-13T16:27:20.427Z,46.56
2023-01-13T16:29:22.137Z,47.42
2023-01-13T16:31:26.816Z,48.05
2023-01-13T16:33:28.419Z,47.16
2023-01-13T16:35:30.372Z,46.34
2023-01-13T16:37:31.928Z,46.70
2023-01-13T16:39:34.910Z,47.04
2023-01-13T16:41:36.567Z,47.74
2023-01-13T16:43:38.616Z,47.89
2023-01-13T16:45:41.081Z,47.30
2023-01-13T16:47:42.671Z,46.41
2023-01-13T16:49:45.112Z,45.63
2023-01-13T16:51:46.751Z,45.74
2023-01-13T16:53:49.007Z,46.15
2023-01-13T16:55:51.978Z,45.99
2023-01-13T16:57:53.628Z,45.98
2023-01-13T16:59:55.227Z,46.26
2023-01-13T17:01:56.955Z,45.80
2023-01-13T17:03:59.182Z,45.51
2023-01-13T17:06:01.958Z,45.43
2023-01-13T17:08:03.840Z,45.92
2023-01-13T17:10:06.309Z,45.33
2023-01-13T17:12:09.958Z,45.85
2023-01-13T17:14:19.282Z,46.15
2023-01-13T17:16:24.264Z,46.60
2023-01-13T17:18:25.939Z,46.10
2023-01-13T17:20:28.161Z,46.99
2023-01-13T17:22:29.733Z,45.47
2023-01-13T17:24:31.357Z,45.86
2023-01-13T17:26:35.419Z,45.40
2023-01-13T17:28:38.540Z,45.63
2023-01-13T17:30:43.513Z,44.53
2023-01-13T17:32:45.092Z,44.99
2023-01-13T17:34:47.294Z,45.55
2023-01-13T17:36:49.378Z,46.57
2023-01-13T17:38:51.047Z,45.63
2023-01-13T17:40:52.641Z,45.72
2023-01-13T17:42:54.311Z,45.24
2023-01-13T17:44:57.318Z,45.08
2023-01-13T17:46:58.900Z,46.17
2023-01-13T17:49:00.451Z,45.81
2023-01-13T17:51:01.996Z,46.10
2023-01-13T17:53:03.640Z,46.03
2023-01-13T17:55:06.034Z,46.19
2023-01-13T17:57:07.771Z,44.92
2023-01-13T17:59:11.711Z,45.49
2023-01-13T18:01:16.856Z,45.06
2023-01-13T18:03:18.830Z,45.08
2023-01-13T18:05:20.436Z,45.40
2023-01-13T18:07:22.032Z,45.52
2023-01-13T18:09:23.591Z,45.33
2023-01-13T18:11:26.009Z,45.49
2023-01-13T18:13:27.608Z,45.21
2023-01-13T18:15:29.393Z,45.97
2023-01-13T18:17:32.436Z,46.26
2023-01-13T18:19:33.981Z,45.72
2023-01-13T18:21:35.568Z,45.62
2023-01-13T18:23:37.145Z,46.29
2023-01-13T18:25:39.594Z,46.57
2023-01-13T18:27:41.219Z,46.71
2023-01-13T18:29:43.178Z,46.17
2023-01-13T18:31:45.093Z,46.43
2023-01-13T18:33:48.076Z,46.80
2023-01-13T18:35:50.090Z,46.92
2023-01-13T18:37:51.764Z,47.09
2023-01-13T18:39:53.652Z,46.38
2023-01-13T18:41:55.258Z,46.71
2023-01-13T18:43:57.036Z,46.90
2023-01-13T18:45:58.745Z,46.80
2023-01-13T18:48:02.425Z,46.83
2023-01-13T18:50:06.547Z,47.29
2023-01-13T18:52:08.140Z,46.93
2023-01-13T18:54:09.833Z,47.06
2023-01-13T18:56:12.690Z,47.71
2023-01-13T18:58:14.257Z,47.82
2023-01-13T19:00:19.367Z,47.59
2023-01-13T19:02:21.144Z,47.83
2023-01-13T19:04:22.756Z,47.67
2023-01-13T19:06:26.564Z,47.65
2023-01-13T19:08:28.377Z,47.98
2023-01-13T19:10:30.066Z,48.31
2023-01-13T19:12:32.090Z,48.26
2023-01-13T19:14:33.729Z,48.17
2023-01-13T19:16:35.496Z,48.39
2023-01-13T19:18:37.079Z,48.46
2023-01-13T19:20:38.655Z,48.24
2023-01-13T19:22:41.644Z,48.29
2023-01-13T19:24:43.454Z,48.22
2023-01-13T19:26:45.124Z,48.59
2023-01-13T19:28:46.657Z,49.06
2023-01-13T19:30:50.660Z,49.17
2023-01-13T19:32:52.314Z,49.56
2023-01-13T19:34:53.953Z,49.93
2023-01-13T19:36:55.642Z,50.23
2023-01-13T19:38:58.646Z,49.87
2023-01-13T19:41:02.184Z,49.93
2023-01-13T19:43:03.840Z,49.68
2023-01-13T19:45:06.476Z,49.80
2023-01-13T19:47:08.072Z,50.17
2023-01-13T19:49:09.777Z,50.24
2023-01-13T19:51:11.728Z,50.41
2023-01-13T19:53:16.715Z,50.28
2023-01-13T19:55:19.950Z,50.60
2023-01-13T19:57:21.588Z,50.58
2023-01-13T19:59:23.411Z,50.62
2023-01-13T20:01:25.174Z,50.22
2023-01-13T20:03:27.265Z,50.74
2023-01-13T20:05:28.909Z,50.83
2023-01-13T20:07:32.917Z,51.28
2023-01-13T20:09:34.910Z,52.27
2023-01-13T20:11:38.180Z,53.84
2023-01-13T20:13:39.803Z,54.89
2023-01-13T20:15:41.973Z,54.61
2023-01-13T20:17:43.997Z,54.67
2023-01-13T20:19:46.136Z,55.09
2023-01-13T20:21:47.800Z,54.70
2023-01-13T20:23:50.139Z,54.96
2023-01-13T20:25:51.780Z,54.14
2023-01-13T20:27:56.251Z,55.03
2023-01-13T20:29:57.839Z,54.51
2023-01-13T20:31:59.812Z,54.03
2023-01-13T20:34:01.467Z,53.99
2023-01-13T20:36:03.537Z,54.37
2023-01-13T20:38:05.292Z,54.52
2023-01-13T20:40:08.374Z,54.37
2023-01-13T20:42:10.210Z,54.24
2023-01-13T20:44:14.102Z,54.37
2023-01-13T20:46:15.888Z,54.50
2023-01-13T20:48:17.712Z,54.51
2023-01-13T20:50:19.567Z,54.37
2023-01-13T20:52:21.237Z,55.15
2023-01-13T20:54:23.300Z,54.69
2023-01-13T20:56:25.169Z,54.12
2023-01-13T20:58:26.855Z,54.75
2023-01-13T21:00:29.862Z,54.22
2023-01-13T21:02:31.571Z,54.43
2023-01-13T21:04:33.475Z,54.46
2023-01-13T21:06:35.400Z,54.96
2023-01-13T21:08:36.974Z,53.87
2023-01-13T21:10:38.648Z,53.82
2023-01-13T21:12:40.230Z,54.12
2023-01-13T21:14:41.833Z,54.39
2023-01-13T21:16:44.799Z,54.28
2023-01-13T21:18:46.535Z,54.23
2023-01-13T21:20:48.235Z,54.09
2023-01-13T21:22:50.085Z,54.40
2023-01-13T21:24:51.814Z,53.63
2023-01-13T21:26:53.405Z,54.24
2023-01-13T21:29:05.288Z,54.30
2023-01-13T21:31:09.211Z,54.13
2023-01-13T21:33:14.114Z,53.62
2023-01-13T21:35:16.053Z,53.27
2023-01-13T21:37:17.834Z,53.81
2023-01-13T21:39:19.378Z,53.53
2023-01-13T21:41:21.260Z,53.50
2023-01-13T21:43:22.831Z,53.78
2023-01-13T21:45:24.448Z,53.79
2023-01-13T21:47:26.209Z,53.37
2023-01-13T21:49:29.270Z,52.78
2023-01-13T21:51:31.493Z,52.36
2023-01-13T21:53:33.334Z,52.50
2023-01-13T21:55:35.911Z,52.54
2023-01-13T21:57:37.683Z,53.15
2023-01-13T21:59:39.324Z,52.72
2023-01-13T22:02:23.431Z,52.62
2023-01-13T22:04:02.519Z,52.24
2023-01-13T22:06:06.076Z,52.21
2023-01-13T22:08:07.695Z,52.53
2023-01-13T22:10:11.106Z,51.44
2023-01-13T22:12:12.875Z,52.18
2023-01-13T22:14:14.450Z,52.42
2023-01-13T22:16:16.154Z,51.59
2023-01-13T22:18:17.808Z,51.89
2023-01-13T22:20:20.282Z,51.90
2023-01-13T22:22:23.945Z,51.78
2023-01-13T22:24:25.541Z,51.90
2023-01-13T22:26:27.466Z,52.56
2023-01-13T22:28:29.187Z,52.16
2023-01-13T22:30:30.771Z,52.16
2023-01-13T22:32:35.901Z,51.22
2023-01-13T22:34:37.682Z,51.84
2023-01-13T22:36:39.258Z,51.30
2023-01-13T22:38:42.210Z,51.60
2023-01-13T22:40:43.914Z,51.41
2023-01-13T22:42:45.479Z,51.88
2023-01-13T22:44:47.075Z,51.64
2023-01-13T22:46:48.862Z,51.08
2023-01-13T22:48:50.511Z,52.03
2023-01-13T22:50:52.200Z,51.43
2023-01-13T22:52:53.733Z,51.41
2023-01-13T22:54:56.653Z,51.25
2023-01-13T22:56:58.241Z,51.95
2023-01-13T22:59:01.820Z,51.70
2023-01-13T23:01:10.741Z,51.94
2023-01-13T23:03:12.391Z,51.30
2023-01-13T23:05:14.176Z,51.30
2023-01-13T23:07:15.719Z,51.53
2023-01-13T23:09:17.266Z,52.17
2023-01-13T23:11:22.520Z,51.84
2023-01-13T23:13:24.110Z,51.92
2023-01-13T23:15:25.629Z,51.27
2023-01-13T23:17:27.252Z,51.37
2023-01-13T23:19:28.776Z,51.64
2023-01-13T23:21:33.026Z,51.62
2023-01-13T23:23:34.724Z,51.22
2023-01-13T23:25:36.377Z,50.89
2023-01-13T23:27:39.685Z,51.53
2023-01-13T23:29:41.420Z,50.87
2023-01-13T23:31:42.986Z,51.12
2023-01-13T23:33:45.303Z,51.55
2023-01-13T23:35:56.882Z,51.37
2023-01-13T23:37:58.456Z,51.49
2023-01-13T23:39:59.979Z,51.26
2023-01-13T23:42:01.707Z,51.67
2023-01-13T23:44:04.897Z,51.47
2023-01-13T23:46:09.075Z,51.05
2023-01-13T23:48:10.919Z,50.69
2023-01-13T23:50:12.527Z,51.44
2023-01-13T23:52:14.141Z,52.04
2023-01-13T23:54:15.663Z,52.66
2023-01-13T23:56:19.196Z,53.06
2023-01-13T23:58:20.856Z,52.83
